Time;durP1;ratioP1;P1;durP2;ratioP2;P2;SDS_P1;SDS_P2;PMS_P1;PMS_P2;Temp;Humidity;BMP_temperature;BMP_pressure;BME280_temperature;BME280_humidity;BME280_pressure;Samples;Min_cycle;Max_cycle;Signal;HPM_P1;HPM_P2
2022/04/24 00:00:27;;;;;;;17.70;14.40;;;;;;;;;;5051977;28;20970;-61
2022/04/24 00:02:56;;;;;;;17.00;14.80;;;;;;;;;;5050922;28;20419;-60
2022/04/24 00:05:22;;;;;;;18.20;14.50;;;;;;;;;;5037417;28;20429;-52
2022/04/24 00:07:48;;;;;;;17.87;14.27;;;;;;;;;;5032168;28;20431;-62
2022/04/24 00:10:14;;;;;;;19.40;14.70;;;;;;;;;;5032066;28;20412;-66
2022/04/24 00:12:40;;;;;;;16.73;13.50;;;;;;;;;;5031931;28;20409;-59
2022/04/24 00:15:06;;;;;;;21.33;14.10;;;;;;;;;;5031929;28;20412;-70
2022/04/24 00:17:32;;;;;;;19.40;15.00;;;;;;;;;;5041069;28;20438;-58
2022/04/24 00:19:58;;;;;;;18.30;14.57;;;;;;;;;;5051706;28;20459;-61
2022/04/24 00:22:24;;;;;;;18.00;14.70;;;;;;;;;;5051780;28;20404;-60
2022/04/24 00:24:50;;;;;;;19.33;15.40;;;;;;;;;;5051873;28;20453;-65
2022/04/24 00:27:16;;;;;;;20.90;15.47;;;;;;;;;;5051627;28;20410;-58
2022/04/24 00:29:43;;;;;;;19.90;15.17;;;;;;;;;;5050517;28;20424;-66
2022/04/24 00:32:09;;;;;;;20.00;15.00;;;;;;;;;;5051847;28;20946;-55
2022/04/24 00:34:38;;;;;;;18.93;14.90;;;;;;;;;;5050421;28;20994;-66
2022/04/24 00:37:04;;;;;;;17.10;13.87;;;;;;;;;;5051620;28;20420;-55
2022/04/24 00:39:30;;;;;;;18.70;15.10;;;;;;;;;;5055593;28;20470;-55
2022/04/24 00:41:56;;;;;;;19.27;15.27;;;;;;;;;;5055522;28;20945;-51
2022/04/24 00:44:23;;;;;;;20.40;15.30;;;;;;;;;;5055456;28;20411;-48
2022/04/24 00:47:01;;;;;;;21.00;15.80;;;;;;;;;;5055646;28;20422;-56
2022/04/24 00:49:30;;;;;;;20.37;15.30;;;;;;;;;;5055248;28;20411;-58
2022/04/24 00:51:57;;;;;;;18.23;14.70;;;;;;;;;;5053676;28;20408;-58
2022/04/24 00:54:23;;;;;;;22.17;16.30;;;;;;;;;;5055243;28;20411;-54
2022/04/24 00:56:49;;;;;;;21.30;16.40;;;;;;;;;;5055386;28;20411;-53
2022/04/24 00:59:15;;;;;;;22.10;16.27;;;;;;;;;;5054968;28;21013;-50
2022/04/24 01:01:42;;;;;;;25.97;18.90;;;;;;;;;;5055124;28;20415;-53
2022/04/24 01:04:10;;;;;;;32.67;19.67;;;;;;;;;;5055198;28;20411;-48
2022/04/24 01:06:39;;;;;;;29.30;18.77;;;;;;;;;;5054959;28;20493;-66
2022/04/24 01:09:19;;;;;;;29.13;20.20;;;;;;;;;;5055105;28;20423;-50
2022/04/24 01:11:46;;;;;;;29.83;18.63;;;;;;;;;;5053591;28;20443;-50
2022/04/24 01:14:12;;;;;;;29.57;21.17;;;;;;;;;;5054869;28;20435;-59
2022/04/24 01:16:39;;;;;;;25.70;17.40;;;;;;;;;;5053554;28;20511;-56
2022/04/24 01:19:05;;;;;;;22.33;17.80;;;;;;;;;;5054835;28;20467;-55
2022/04/24 01:21:35;;;;;;;26.53;19.80;;;;;;;;;;5054663;28;20486;-60
2022/04/24 01:24:04;;;;;;;32.00;21.60;;;;;;;;;;5054756;28;20411;-59
2022/04/24 01:26:30;;;;;;;27.40;18.90;;;;;;;;;;5054718;28;20581;-62
2022/04/24 01:28:56;;;;;;;28.90;20.07;;;;;;;;;;5054703;28;20416;-54
2022/04/24 01:31:22;;;;;;;27.13;19.30;;;;;;;;;;5054710;28;20517;-60
2022/04/24 01:33:47;;;;;;;25.57;18.97;;;;;;;;;;5054718;28;20509;-62
2022/04/24 01:36:13;;;;;;;26.03;17.47;;;;;;;;;;5054569;28;20414;-66
2022/04/24 01:38:42;;;;;;;26.13;19.20;;;;;;;;;;5054334;28;20470;-61
2022/04/24 01:41:09;;;;;;;28.10;18.47;;;;;;;;;;5054414;28;20418;-54
2022/04/24 01:43:38;;;;;;;25.03;18.27;;;;;;;;;;5054375;28;20787;-63
2022/04/24 01:46:05;;;;;;;22.47;17.00;;;;;;;;;;5054654;28;20411;-55
2022/04/24 01:48:33;;;;;;;23.87;17.60;;;;;;;;;;5053705;28;20414;-59
2022/04/24 01:50:59;;;;;;;24.37;18.60;;;;;;;;;;5052252;28;20462;-57
2022/04/24 01:53:25;;;;;;;27.17;16.60;;;;;;;;;;5054192;28;20419;-67
2022/04/24 01:55:54;;;;;;;23.80;17.30;;;;;;;;;;5053004;28;20428;-59
2022/04/24 01:58:20;;;;;;;24.93;18.00;;;;;;;;;;5054267;28;20459;-65
2022/04/24 02:00:46;;;;;;;23.63;17.00;;;;;;;;;;5052718;28;20522;-63
2022/04/24 02:03:12;;;;;;;22.00;17.20;;;;;;;;;;5052950;28;20404;-64
2022/04/24 02:05:38;;;;;;;22.43;16.70;;;;;;;;;;5053936;28;20403;-65
2022/04/24 02:08:07;;;;;;;21.37;16.17;;;;;;;;;;5053885;28;20411;-50
2022/04/24 02:10:33;;;;;;;21.20;16.53;;;;;;;;;;5053916;28;20442;-58
2022/04/24 02:12:59;;;;;;;21.30;16.03;;;;;;;;;;5053792;28;20412;-52
2022/04/24 02:15:25;;;;;;;27.07;15.93;;;;;;;;;;5053685;28;20406;-66
2022/04/24 02:17:54;;;;;;;20.33;15.67;;;;;;;;;;5053988;28;20503;-60
2022/04/24 02:20:20;;;;;;;20.20;15.80;;;;;;;;;;5053812;28;20456;-52
2022/04/24 02:22:46;;;;;;;21.83;16.43;;;;;;;;;;5053656;28;20408;-56
2022/04/24 02:25:12;;;;;;;22.97;16.63;;;;;;;;;;5053615;28;20414;-51
2022/04/24 02:27:38;;;;;;;20.20;15.80;;;;;;;;;;5053480;28;20915;-51
2022/04/24 02:30:04;;;;;;;21.90;16.60;;;;;;;;;;5053285;28;20415;-55
2022/04/24 02:32:30;;;;;;;18.40;15.17;;;;;;;;;;5053475;28;20434;-58
2022/04/24 02:34:56;;;;;;;22.27;15.83;;;;;;;;;;5053515;28;20418;-58
2022/04/24 02:37:22;;;;;;;21.43;15.97;;;;;;;;;;5053364;28;20404;-52
2022/04/24 02:39:48;;;;;;;21.33;15.20;;;;;;;;;;5053523;28;20471;-59
2022/04/24 02:42:14;;;;;;;21.60;15.53;;;;;;;;;;5053438;28;20418;-71
2022/04/24 02:44:40;;;;;;;20.90;15.80;;;;;;;;;;5053596;28;20448;-61
2022/04/24 02:47:07;;;;;;;23.07;16.20;;;;;;;;;;5051968;28;20525;-64
2022/04/24 02:49:33;;;;;;;22.33;16.30;;;;;;;;;;5053190;28;20415;-65
2022/04/24 02:51:59;;;;;;;21.90;15.77;;;;;;;;;;5053126;28;20761;-65
2022/04/24 02:54:25;;;;;;;22.93;17.20;;;;;;;;;;5053103;28;20412;-68
2022/04/24 02:56:51;;;;;;;21.40;15.87;;;;;;;;;;5053166;28;20461;-70
2022/04/24 02:59:17;;;;;;;23.97;16.13;;;;;;;;;;5052873;28;20554;-64
2022/04/24 03:01:45;;;;;;;21.83;16.80;;;;;;;;;;5052478;28;20414;-69
2022/04/24 03:04:11;;;;;;;24.30;17.50;;;;;;;;;;5052999;28;20503;-74
2022/04/24 03:06:37;;;;;;;23.70;16.80;;;;;;;;;;5053118;28;20412;-66
2022/04/24 03:09:04;;;;;;;21.93;16.90;;;;;;;;;;5053275;28;20424;-68
2022/04/24 03:11:30;;;;;;;20.90;16.87;;;;;;;;;;5052739;28;20419;-71
2022/04/24 03:13:56;;;;;;;22.40;16.73;;;;;;;;;;5052606;28;20411;-64
2022/04/24 03:16:22;;;;;;;24.80;17.30;;;;;;;;;;5052808;28;20502;-72
2022/04/24 03:18:48;;;;;;;29.53;17.37;;;;;;;;;;5051213;28;20494;-74
2022/04/24 03:21:14;;;;;;;21.67;16.77;;;;;;;;;;5052372;28;20546;-70
2022/04/24 03:23:40;;;;;;;23.47;17.53;;;;;;;;;;5051230;28;20515;-74
2022/04/24 03:26:06;;;;;;;22.50;16.43;;;;;;;;;;5054236;28;20407;-68
2022/04/24 03:28:32;;;;;;;25.23;16.27;;;;;;;;;;5072467;28;20415;-71
2022/04/24 03:30:58;;;;;;;27.60;16.30;;;;;;;;;;5072300;28;20417;-71
2022/04/24 03:33:24;;;;;;;21.37;15.90;;;;;;;;;;5071090;28;20426;-75
2022/04/24 03:35:50;;;;;;;22.00;17.17;;;;;;;;;;5072375;28;20429;-71
2022/04/24 03:38:16;;;;;;;22.13;16.27;;;;;;;;;;5072246;28;20962;-73
2022/04/24 03:40:42;;;;;;;27.93;16.63;;;;;;;;;;5072270;28;20411;-68
2022/04/24 03:43:08;;;;;;;21.50;16.43;;;;;;;;;;5072358;28;20871;-73
2022/04/24 03:45:34;;;;;;;24.20;16.40;;;;;;;;;;5071032;28;20419;-67
2022/04/24 03:48:00;;;;;;;24.43;16.80;;;;;;;;;;5072061;28;20399;-69
2022/04/24 03:50:27;;;;;;;22.87;17.03;;;;;;;;;;5072175;28;20406;-74
2022/04/24 03:52:53;;;;;;;22.67;17.27;;;;;;;;;;5072288;28;20933;-69
2022/04/24 03:55:18;;;;;;;27.63;17.73;;;;;;;;;;5071752;28;20510;-58
2022/04/24 03:57:44;;;;;;;23.37;16.60;;;;;;;;;;5072931;28;20506;-76
2022/04/24 04:00:12;;;;;;;25.43;17.90;;;;;;;;;;5072746;28;20415;-70
2022/04/24 04:02:44;;;;;;;25.67;17.80;;;;;;;;;;5072548;28;20442;-74
2022/04/24 04:05:10;;;;;;;24.63;17.40;;;;;;;;;;5070714;28;20418;-61
2022/04/24 04:07:36;;;;;;;27.23;17.90;;;;;;;;;;5072100;28;20399;-72
2022/04/24 04:10:02;;;;;;;26.23;17.87;;;;;;;;;;5071895;28;20423;-60
2022/04/24 04:12:28;;;;;;;24.10;16.87;;;;;;;;;;5072569;28;20407;-63
2022/04/24 04:14:54;;;;;;;24.80;17.10;;;;;;;;;;5076193;28;20406;-64
2022/04/24 04:17:20;;;;;;;22.00;16.73;;;;;;;;;;5068608;28;20895;-68
2022/04/24 04:19:49;;;;;;;23.50;17.40;;;;;;;;;;5055773;28;21000;-58
2022/04/24 04:22:15;;;;;;;24.43;17.07;;;;;;;;;;5055976;28;20566;-56
2022/04/24 04:24:44;;;;;;;21.00;15.00;;;;;;;;;;5055798;28;20967;-52
2022/04/24 04:27:10;;;;;;;22.17;16.20;;;;;;;;;;5055751;28;20408;-58
2022/04/24 04:29:36;;;;;;;24.23;16.93;;;;;;;;;;5054525;28;20768;-57
2022/04/24 04:32:02;;;;;;;22.63;17.17;;;;;;;;;;5055849;28;20415;-55
2022/04/24 04:34:28;;;;;;;22.57;16.30;;;;;;;;;;5055777;28;20412;-74
2022/04/24 04:36:54;;;;;;;22.37;16.73;;;;;;;;;;5056006;28;20411;-62
2022/04/24 04:39:20;;;;;;;22.43;17.03;;;;;;;;;;5055682;28;20466;-58
2022/04/24 04:41:46;;;;;;;21.27;16.77;;;;;;;;;;5055450;28;20407;-60
2022/04/24 04:44:13;;;;;;;21.83;16.47;;;;;;;;;;5055446;28;20493;-62
2022/04/24 04:46:41;;;;;;;21.27;15.30;;;;;;;;;;5055412;28;20437;-64
2022/04/24 04:49:08;;;;;;;22.13;16.43;;;;;;;;;;5055306;28;20914;-58
2022/04/24 04:51:34;;;;;;;24.00;16.67;;;;;;;;;;5055257;28;20438;-58
2022/04/24 04:54:00;;;;;;;20.37;15.50;;;;;;;;;;5055406;28;20406;-63
2022/04/24 04:56:25;;;;;;;21.90;16.40;;;;;;;;;;5055397;28;20927;-58
2022/04/24 04:58:51;;;;;;;23.47;16.40;;;;;;;;;;5055263;28;20474;-60
2022/04/24 05:01:18;;;;;;;22.70;15.60;;;;;;;;;;5055391;28;20503;-66
2022/04/24 05:03:43;;;;;;;24.73;16.90;;;;;;;;;;5055342;28;20418;-60
2022/04/24 05:06:10;;;;;;;20.77;15.93;;;;;;;;;;5053950;28;20412;-58
2022/04/24 05:08:36;;;;;;;36.60;20.40;;;;;;;;;;5055257;28;20776;-70
2022/04/24 05:11:02;;;;;;;23.13;17.07;;;;;;;;;;5055374;28;20408;-60
2022/04/24 05:13:28;;;;;;;23.20;16.27;;;;;;;;;;5055164;28;20420;-70
2022/04/24 05:15:54;;;;;;;24.30;16.63;;;;;;;;;;5055138;28;20407;-58
2022/04/24 05:18:26;;;;;;;24.83;15.90;;;;;;;;;;5055032;28;20490;-61
2022/04/24 05:20:52;;;;;;;19.83;15.57;;;;;;;;;;5054827;28;20465;-50
2022/04/24 05:23:18;;;;;;;22.57;16.57;;;;;;;;;;5054560;28;20435;-51
2022/04/24 05:25:44;;;;;;;22.43;16.87;;;;;;;;;;5053610;28;20453;-67
2022/04/24 05:28:10;;;;;;;21.17;16.63;;;;;;;;;;5055063;28;20911;-53
2022/04/24 05:30:37;;;;;;;22.43;16.80;;;;;;;;;;5054827;28;20418;-66
2022/04/24 05:33:09;;;;;;;21.67;16.20;;;;;;;;;;5054887;28;20415;-72
2022/04/24 05:35:35;;;;;;;21.20;16.53;;;;;;;;;;5054667;28;20411;-65
2022/04/24 05:38:01;;;;;;;24.70;16.50;;;;;;;;;;5054732;28;20455;-62
2022/04/24 05:40:27;;;;;;;20.60;16.20;;;;;;;;;;5054723;28;20772;-68
2022/04/24 05:42:54;;;;;;;22.40;16.50;;;;;;;;;;5054547;28;20404;-66
2022/04/24 05:45:22;;;;;;;21.87;16.50;;;;;;;;;;5053392;28;20423;-74
2022/04/24 05:47:54;;;;;;;26.60;16.90;;;;;;;;;;5054719;28;20412;-63
2022/04/24 05:50:20;;;;;;;22.73;17.13;;;;;;;;;;5054640;28;20438;-68
2022/04/24 05:52:49;;;;;;;21.37;16.17;;;;;;;;;;5054256;28;20407;-69
2022/04/24 05:55:18;;;;;;;25.03;17.23;;;;;;;;;;5054134;28;20408;-65
2022/04/24 05:57:44;;;;;;;21.10;16.00;;;;;;;;;;5053144;28;20434;-69
2022/04/24 06:00:12;;;;;;;20.73;15.90;;;;;;;;;;5054135;28;20904;-55
2022/04/24 06:02:39;;;;;;;23.20;16.83;;;;;;;;;;5054061;28;20403;-62
2022/04/24 06:05:05;;;;;;;21.63;16.07;;;;;;;;;;5054089;28;20420;-59
2022/04/24 06:07:31;;;;;;;23.17;15.60;;;;;;;;;;5052611;28;20443;-51
2022/04/24 06:09:57;;;;;;;23.40;16.77;;;;;;;;;;5053740;28;20521;-50
2022/04/24 06:12:23;;;;;;;21.07;16.33;;;;;;;;;;5052502;28;20416;-53
2022/04/24 06:14:49;;;;;;;22.00;16.00;;;;;;;;;;5052868;28;20416;-52
2022/04/24 06:17:15;;;;;;;25.13;16.57;;;;;;;;;;5053734;28;20412;-66
2022/04/24 06:19:41;;;;;;;21.73;15.93;;;;;;;;;;5052341;28;21053;-56
2022/04/24 06:22:08;;;;;;;21.20;16.47;;;;;;;;;;5053708;28;20512;-58
2022/04/24 06:24:37;;;;;;;20.63;16.20;;;;;;;;;;5053689;28;20477;-51
2022/04/24 06:27:03;;;;;;;28.63;16.30;;;;;;;;;;5053604;28;20408;-50
2022/04/24 06:29:29;;;;;;;21.87;15.30;;;;;;;;;;5053613;28;20419;-58
2022/04/24 06:31:58;;;;;;;23.33;16.27;;;;;;;;;;5053557;28;20438;-54
2022/04/24 06:34:24;;;;;;;22.70;17.63;;;;;;;;;;5052257;28;20455;-52
2022/04/24 06:36:50;;;;;;;21.20;17.03;;;;;;;;;;5052905;28;20454;-50
2022/04/24 06:39:16;;;;;;;21.37;16.50;;;;;;;;;;5053458;28;20823;-51
2022/04/24 06:41:42;;;;;;;24.07;17.83;;;;;;;;;;5053342;28;20979;-50
2022/04/24 06:44:08;;;;;;;23.07;16.93;;;;;;;;;;5052032;28;20426;-63
2022/04/24 06:46:34;;;;;;;19.60;16.37;;;;;;;;;;5053172;28;20412;-57
2022/04/24 06:49:00;;;;;;;20.97;15.50;;;;;;;;;;5053024;28;20472;-52
2022/04/24 06:51:26;;;;;;;25.90;17.50;;;;;;;;;;5053224;28;20418;-51
2022/04/24 06:53:52;;;;;;;23.93;17.20;;;;;;;;;;5053095;28;20415;-52
2022/04/24 06:56:18;;;;;;;24.80;17.37;;;;;;;;;;5053138;28;20929;-53
2022/04/24 06:58:44;;;;;;;24.63;17.50;;;;;;;;;;5051555;28;20478;-50
2022/04/24 07:01:10;;;;;;;21.10;16.40;;;;;;;;;;5052939;28;20435;-50
2022/04/24 07:03:36;;;;;;;21.97;17.33;;;;;;;;;;5052846;28;20418;-59
2022/04/24 07:06:07;;;;;;;21.43;18.00;;;;;;;;;;5052810;28;20416;-51
2022/04/24 07:08:34;;;;;;;22.40;16.53;;;;;;;;;;5052828;28;20426;-51
2022/04/24 07:11:00;;;;;;;23.47;18.10;;;;;;;;;;5052796;28;20461;-59
2022/04/24 07:13:26;;;;;;;40.10;22.00;;;;;;;;;;5051467;28;20753;-52
2022/04/24 07:15:52;;;;;;;28.73;20.47;;;;;;;;;;5052890;28;20895;-50
2022/04/24 07:18:18;;;;;;;23.90;18.70;;;;;;;;;;5052778;28;20886;-50
2022/04/24 07:20:44;;;;;;;24.90;19.47;;;;;;;;;;5051067;28;20566;-53
2022/04/24 07:23:11;;;;;;;26.30;19.10;;;;;;;;;;5052596;28;20422;-50
2022/04/24 07:25:43;;;;;;;21.40;17.17;;;;;;;;;;5052572;28;20911;-53
2022/04/24 07:28:09;;;;;;;22.73;18.40;;;;;;;;;;5052915;28;20490;-50
2022/04/24 07:30:35;;;;;;;24.90;18.50;;;;;;;;;;5052583;28;20407;-54
2022/04/24 07:33:01;;;;;;;20.80;17.70;;;;;;;;;;5052256;28;20495;-53
2022/04/24 07:35:29;;;;;;;23.00;17.13;;;;;;;;;;5052285;28;20407;-52
2022/04/24 07:37:55;;;;;;;22.13;17.60;;;;;;;;;;5052272;28;20407;-52
2022/04/24 07:40:26;;;;;;;24.30;18.47;;;;;;;;;;5050830;28;20419;-50
2022/04/24 07:42:52;;;;;;;22.60;18.07;;;;;;;;;;5052322;28;20411;-56
2022/04/24 07:45:22;;;;;;;22.47;18.30;;;;;;;;;;5052281;28;20911;-53
2022/04/24 07:47:49;;;;;;;21.73;17.50;;;;;;;;;;5050993;28;20427;-66
2022/04/24 07:50:15;;;;;;;23.80;18.20;;;;;;;;;;5052146;28;20411;-56
2022/04/24 07:52:42;;;;;;;20.60;17.50;;;;;;;;;;5052226;28;20407;-51
2022/04/24 07:55:10;;;;;;;28.50;18.73;;;;;;;;;;5052394;28;20404;-60
2022/04/24 07:57:36;;;;;;;21.60;18.30;;;;;;;;;;5050809;28;20856;-51
2022/04/24 08:00:03;;;;;;;24.50;19.17;;;;;;;;;;5052017;28;20471;-53
2022/04/24 08:02:29;;;;;;;20.03;17.83;;;;;;;;;;5052054;28;20461;-50
2022/04/24 08:04:55;;;;;;;21.00;17.93;;;;;;;;;;5051934;28;20419;-55
2022/04/24 08:07:22;;;;;;;21.53;16.73;;;;;;;;;;5050756;28;20920;-62
2022/04/24 08:09:50;;;;;;;23.90;17.87;;;;;;;;;;5052101;28;20408;-51
2022/04/24 08:12:17;;;;;;;20.97;16.83;;;;;;;;;;5051867;28;20911;-57
2022/04/24 08:14:43;;;;;;;22.60;17.77;;;;;;;;;;5052172;28;20412;-56
2022/04/24 08:17:09;;;;;;;21.70;16.87;;;;;;;;;;5051716;28;20940;-58
2022/04/24 08:19:35;;;;;;;19.50;16.77;;;;;;;;;;5051591;28;20503;-57
2022/04/24 08:22:01;;;;;;;19.73;16.10;;;;;;;;;;5051760;28;20808;-57
2022/04/24 08:24:27;;;;;;;18.47;16.50;;;;;;;;;;5052154;28;20416;-54
2022/04/24 08:26:53;;;;;;;19.00;15.93;;;;;;;;;;5051377;28;20760;-52
2022/04/24 08:29:19;;;;;;;15.00;13.30;;;;;;;;;;5050597;28;20411;-60
2022/04/24 08:31:45;;;;;;;19.63;15.07;;;;;;;;;;5050525;28;20506;-51
2022/04/24 08:34:11;;;;;;;17.60;13.90;;;;;;;;;;5050300;28;20458;-55
2022/04/24 08:36:37;;;;;;;16.93;14.33;;;;;;;;;;5051724;28;20995;-52
2022/04/24 08:39:03;;;;;;;15.43;13.73;;;;;;;;;;5051829;28;20470;-56
2022/04/24 08:41:33;;;;;;;16.00;13.77;;;;;;;;;;5051524;28;20414;-57
2022/04/24 08:44:00;;;;;;;14.53;12.83;;;;;;;;;;5051727;28;20771;-57
2022/04/24 08:46:26;;;;;;;14.40;12.80;;;;;;;;;;5051675;28;20911;-54
2022/04/24 08:48:52;;;;;;;13.53;12.20;;;;;;;;;;5050334;28;20953;-53
2022/04/24 08:51:20;;;;;;;15.93;12.87;;;;;;;;;;5051715;28;20423;-51
2022/04/24 08:53:46;;;;;;;14.23;12.83;;;;;;;;;;5051530;28;20485;-54
2022/04/24 08:56:12;;;;;;;13.37;11.80;;;;;;;;;;5051500;28;20437;-62
2022/04/24 08:58:39;;;;;;;15.03;12.97;;;;;;;;;;5052190;28;20807;-49
2022/04/24 09:01:05;;;;;;;18.23;12.20;;;;;;;;;;5055530;28;20931;-60
2022/04/24 09:03:31;;;;;;;13.50;12.10;;;;;;;;;;5053909;28;20443;-64
2022/04/24 09:05:57;;;;;;;14.00;12.60;;;;;;;;;;5055130;28;20563;-52
2022/04/24 09:08:24;;;;;;;13.60;12.10;;;;;;;;;;5055006;28;20407;-58
2022/04/24 09:10:55;;;;;;;12.70;11.40;;;;;;;;;;5055129;28;20534;-65
2022/04/24 09:13:31;;;;;;;13.40;12.00;;;;;;;;;;5055163;28;20412;-58
2022/04/24 09:15:58;;;;;;;13.67;12.27;;;;;;;;;;5054880;28;20546;-71
2022/04/24 09:18:36;;;;;;;12.50;11.13;;;;;;;;;;5054568;28;20478;-67
2022/04/24 09:21:02;;;;;;;13.47;11.70;;;;;;;;;;5054653;28;20462;-54
2022/04/24 09:23:36;;;;;;;15.00;12.33;;;;;;;;;;5053188;28;20754;-60
2022/04/24 09:26:02;;;;;;;14.80;12.00;;;;;;;;;;5054782;28;20423;-66
2022/04/24 09:28:38;;;;;;;19.03;12.27;;;;;;;;;;5054484;28;20412;-52
2022/04/24 09:31:04;;;;;;;16.77;12.20;;;;;;;;;;5054625;28;20794;-52
2022/04/24 09:33:39;;;;;;;13.93;12.30;;;;;;;;;;5054566;28;20412;-51
2022/04/24 09:36:06;;;;;;;14.53;12.17;;;;;;;;;;5054544;28;20482;-61
2022/04/24 09:38:39;;;;;;;14.40;12.90;;;;;;;;;;5053106;28;20954;-66
2022/04/24 09:41:13;;;;;;;14.20;12.60;;;;;;;;;;5054416;28;20466;-56
2022/04/24 09:43:41;;;;;;;14.60;12.87;;;;;;;;;;5054363;28;20403;-65
2022/04/24 09:46:08;;;;;;;15.20;12.03;;;;;;;;;;5054373;28;20808;-59
2022/04/24 09:48:34;;;;;;;16.80;12.00;;;;;;;;;;5054119;28;20434;-58
2022/04/24 09:51:00;;;;;;;14.73;12.40;;;;;;;;;;5054200;28;20801;-58
2022/04/24 09:53:28;;;;;;;16.00;11.87;;;;;;;;;;5054125;28;20412;-58
2022/04/24 09:55:55;;;;;;;17.50;11.50;;;;;;;;;;5054257;28;20446;-55
2022/04/24 09:58:21;;;;;;;13.30;11.70;;;;;;;;;;5052786;28;20462;-68
2022/04/24 10:00:48;;;;;;;15.97;12.07;;;;;;;;;;5054188;28;20423;-61
2022/04/24 10:03:15;;;;;;;13.20;11.50;;;;;;;;;;5054050;28;20757;-61
2022/04/24 10:05:43;;;;;;;12.70;11.23;;;;;;;;;;5052703;28;20924;-57
2022/04/24 10:08:09;;;;;;;13.60;11.17;;;;;;;;;;5052709;28;20492;-66
2022/04/24 10:10:36;;;;;;;14.67;10.83;;;;;;;;;;5051390;28;20426;-64
2022/04/24 10:13:02;;;;;;;12.03;10.83;;;;;;;;;;5053898;28;20563;-59
2022/04/24 10:15:30;;;;;;;12.10;10.80;;;;;;;;;;5053753;28;20498;-64
2022/04/24 10:18:01;;;;;;;12.70;11.17;;;;;;;;;;5053563;28;20399;-73
2022/04/24 10:20:30;;;;;;;11.80;10.70;;;;;;;;;;5053636;28;20459;-70
2022/04/24 10:22:58;;;;;;;12.97;10.53;;;;;;;;;;5053766;28;20404;-66
2022/04/24 10:25:37;;;;;;;14.67;10.40;;;;;;;;;;5053630;28;20434;-74
2022/04/24 10:28:16;;;;;;;10.97;9.87;;;;;;;;;;5052450;28;21053;-75
2022/04/24 10:30:42;;;;;;;10.90;9.67;;;;;;;;;;5053706;28;21659;-66
2022/04/24 10:33:47;;;;;;;12.47;10.70;;;;;;;;;;5053585;28;20422;-73
2022/04/24 10:36:14;;;;;;;12.50;10.17;;;;;;;;;;5011493;28;20468;-71
2022/04/24 10:39:00;;;;;;;11.97;10.60;;;;;;;;;;5011478;28;20496;-62
2022/04/24 10:41:29;;;;;;;11.57;10.43;;;;;;;;;;5053277;28;20432;-63
2022/04/24 10:43:59;;;;;;;12.03;9.87;;;;;;;;;;5050844;28;20408;-57
2022/04/24 10:46:29;;;;;;;11.63;10.43;;;;;;;;;;5053248;28;20420;-57
2022/04/24 10:49:06;;;;;;;10.53;9.57;;;;;;;;;;5053326;28;20427;-67
2022/04/24 10:51:32;;;;;;;11.43;10.20;;;;;;;;;;5053249;28;20420;-66
2022/04/24 10:53:58;;;;;;;11.83;10.37;;;;;;;;;;5053172;28;20414;-68
2022/04/24 10:56:29;;;;;;;14.10;9.20;;;;;;;;;;5053261;28;20419;-56
2022/04/24 10:59:06;;;;;;;11.23;9.90;;;;;;;;;;5053100;28;20982;-64
2022/04/24 11:01:38;;;;;;;11.30;10.20;;;;;;;;;;5048584;28;20419;-65
2022/04/24 11:04:08;;;;;;;13.57;10.73;;;;;;;;;;5032785;28;20413;-75
2022/04/24 11:06:34;;;;;;;11.23;10.13;;;;;;;;;;5032766;28;20412;-72
2022/04/24 11:09:11;;;;;;;11.83;10.63;;;;;;;;;;5032764;28;20516;-56
2022/04/24 11:11:47;;;;;;;12.00;10.80;;;;;;;;;;5050309;28;20421;-65
2022/04/24 11:14:18;;;;;;;14.43;10.33;;;;;;;;;;5052522;28;20872;-68
2022/04/24 11:16:48;;;;;;;11.03;10.00;;;;;;;;;;5052380;28;20435;-64
2022/04/24 11:19:20;;;;;;;13.30;10.63;;;;;;;;;;5052327;28;20463;-67
2022/04/24 11:21:54;;;;;;;10.57;9.47;;;;;;;;;;5051306;28;20494;-72
2022/04/24 11:24:20;;;;;;;12.93;11.17;;;;;;;;;;5052539;28;20403;-73
2022/04/24 11:26:47;;;;;;;12.33;10.57;;;;;;;;;;5050809;28;20536;-70
2022/04/24 11:29:14;;;;;;;10.70;9.60;;;;;;;;;;5051013;28;20484;-73
2022/04/24 11:31:47;;;;;;;10.10;9.20;;;;;;;;;;5052313;28;20798;-65
2022/04/24 11:34:13;;;;;;;11.53;10.40;;;;;;;;;;5052551;28;20803;-70
2022/04/24 11:36:39;;;;;;;16.80;9.80;;;;;;;;;;5052419;28;20460;-72
2022/04/24 11:39:09;;;;;;;14.70;10.23;;;;;;;;;;5051177;28;20466;-67
2022/04/24 11:41:35;;;;;;;11.10;10.10;;;;;;;;;;5052071;28;20919;-75
2022/04/24 11:44:02;;;;;;;12.30;10.27;;;;;;;;;;5052739;28;20403;-75
2022/04/24 11:51:57;;;;;;;11.20;8.67;;;;;;;;;;5052325;28;20511;-76
2022/04/24 11:54:23;;;;;;;13.83;9.20;;;;;;;;;;5051060;28;20494;-73
2022/04/24 11:56:50;;;;;;;11.03;8.87;;;;;;;;;;5052473;28;20177;-69
2022/04/24 11:59:21;;;;;;;13.30;10.83;;;;;;;;;;5052122;28;20475;-76
2022/04/24 12:01:55;;;;;;;13.53;8.97;;;;;;;;;;5052344;28;20404;-75
2022/04/24 12:04:21;;;;;;;15.60;10.30;;;;;;;;;;5052210;28;20430;-68
2022/04/24 12:06:48;;;;;;;13.70;9.10;;;;;;;;;;5052144;28;20408;-54
2022/04/24 12:09:14;;;;;;;10.10;7.93;;;;;;;;;;5052019;28;20396;-65
2022/04/24 12:11:41;;;;;;;11.10;8.37;;;;;;;;;;5051858;28;20400;-59
2022/04/24 12:14:10;;;;;;;8.70;7.80;;;;;;;;;;5051865;28;20465;-62
2022/04/24 12:16:38;;;;;;;11.07;9.20;;;;;;;;;;5052001;28;20827;-70
2022/04/24 12:19:04;;;;;;;10.90;8.10;;;;;;;;;;5051960;28;20475;-64
2022/04/24 12:21:31;;;;;;;13.73;8.03;;;;;;;;;;5051598;28;20505;-62
2022/04/24 12:23:57;;;;;;;12.20;7.80;;;;;;;;;;5051831;28;20408;-64
2022/04/24 12:26:23;;;;;;;9.93;8.40;;;;;;;;;;5067028;28;20411;-63
2022/04/24 12:28:49;;;;;;;9.10;8.20;;;;;;;;;;5051644;28;20431;-68
2022/04/24 12:31:23;;;;;;;8.97;8.07;;;;;;;;;;5051595;28;20403;-72
2022/04/24 12:33:51;;;;;;;14.93;8.73;;;;;;;;;;5052967;28;20871;-66
2022/04/24 12:36:17;;;;;;;9.47;8.57;;;;;;;;;;5071023;28;20768;-62
2022/04/24 12:38:55;;;;;;;14.20;8.80;;;;;;;;;;5055511;28;20466;-63
2022/04/24 12:41:24;;;;;;;11.30;8.60;;;;;;;;;;5055552;28;20395;-61
2022/04/24 12:43:50;;;;;;;13.10;8.50;;;;;;;;;;5055565;28;20466;-66
2022/04/24 12:46:16;;;;;;;8.87;7.90;;;;;;;;;;5055329;28;20910;-61
2022/04/24 12:48:51;;;;;;;8.40;7.60;;;;;;;;;;5055361;28;20415;-62
2022/04/24 12:51:17;;;;;;;8.77;7.97;;;;;;;;;;5055436;28;20437;-52
2022/04/24 12:53:44;;;;;;;13.03;8.33;;;;;;;;;;5055314;28;20415;-61
2022/04/24 12:56:10;;;;;;;13.80;8.30;;;;;;;;;;5055197;28;20415;-58
2022/04/24 12:58:36;;;;;;;13.63;8.90;;;;;;;;;;5055083;28;20451;-57
2022/04/24 13:01:02;;;;;;;10.97;9.10;;;;;;;;;;5055142;28;20423;-56
2022/04/24 13:03:28;;;;;;;10.80;9.50;;;;;;;;;;5055160;28;20799;-69
2022/04/24 13:05:54;;;;;;;10.60;9.30;;;;;;;;;;5055139;28;20458;-56
2022/04/24 13:08:21;;;;;;;12.53;10.27;;;;;;;;;;5055291;28;20409;-62
2022/04/24 13:10:47;;;;;;;10.93;9.93;;;;;;;;;;5055156;28;20415;-61
2022/04/24 13:13:13;;;;;;;11.20;10.10;;;;;;;;;;5054901;28;20423;-64
2022/04/24 13:15:39;;;;;;;11.20;10.10;;;;;;;;;;5054890;28;20408;-76
2022/04/24 13:18:08;;;;;;;14.60;11.03;;;;;;;;;;5054928;28;20446;-62
2022/04/24 13:20:36;;;;;;;12.10;10.50;;;;;;;;;;5054768;28;20478;-68
2022/04/24 13:23:03;;;;;;;10.80;9.90;;;;;;;;;;5053528;28;20422;-65
2022/04/24 13:25:29;;;;;;;30.87;10.90;;;;;;;;;;5054736;28;20427;-67
2022/04/24 13:27:55;;;;;;;11.27;10.20;;;;;;;;;;5054765;28;20490;-63
2022/04/24 13:30:22;;;;;;;11.40;9.93;;;;;;;;;;5054866;28;20923;-55
2022/04/24 13:32:48;;;;;;;10.37;9.30;;;;;;;;;;5054709;28;20445;-58
2022/04/24 13:35:14;;;;;;;14.00;9.43;;;;;;;;;;5054492;28;20885;-55
2022/04/24 13:40:25;;;;;;;9.23;8.20;;;;;;;;;;5054808;28;20446;-55
2022/04/24 13:42:54;;;;;;;10.20;9.20;;;;;;;;;;5054592;28;20404;-53
2022/04/24 13:45:20;;;;;;;8.77;8.03;;;;;;;;;;5054358;28;20641;-57
2022/04/24 13:47:46;;;;;;;9.80;7.93;;;;;;;;;;5053205;28;20422;-52
2022/04/24 13:50:12;;;;;;;9.33;8.53;;;;;;;;;;5054252;28;20404;-51
2022/04/24 13:52:38;;;;;;;8.90;8.10;;;;;;;;;;5054502;28;20883;-53
2022/04/24 13:55:05;;;;;;;9.10;8.23;;;;;;;;;;5054414;28;20538;-59
2022/04/24 13:57:31;;;;;;;9.40;8.43;;;;;;;;;;5053372;28;20416;-49
2022/04/24 13:59:58;;;;;;;10.07;9.20;;;;;;;;;;5054139;28;20459;-54
2022/04/24 14:02:24;;;;;;;16.07;9.67;;;;;;;;;;5054204;28;20408;-52
2022/04/24 14:04:50;;;;;;;10.93;8.73;;;;;;;;;;5054269;28;20411;-55
2022/04/24 14:07:16;;;;;;;15.03;9.07;;;;;;;;;;5052735;28;20414;-51
2022/04/24 14:09:42;;;;;;;12.33;9.40;;;;;;;;;;5054009;28;20457;-56
2022/04/24 14:12:10;;;;;;;10.07;9.07;;;;;;;;;;5053975;28;20412;-51
2022/04/24 14:14:36;;;;;;;9.80;8.80;;;;;;;;;;5053884;28;20412;-52
2022/04/24 14:17:02;;;;;;;10.73;8.40;;;;;;;;;;5053672;28;20755;-53
2022/04/24 14:19:28;;;;;;;11.90;9.30;;;;;;;;;;5053419;28;20257;-59
2022/04/24 14:21:55;;;;;;;10.03;9.07;;;;;;;;;;5053480;28;20923;-56
2022/04/24 14:24:24;;;;;;;10.87;9.77;;;;;;;;;;5053873;28;20420;-55
2022/04/24 14:26:53;;;;;;;10.70;9.60;;;;;;;;;;5053816;28;20867;-51
2022/04/24 14:29:20;;;;;;;10.80;9.60;;;;;;;;;;5053692;28;20412;-63